Airfield :
LOGIN :

Register | Disclaimer

   EN    FR    IT 

 










Legend :    VFR   Marginal VFR   IFR   Intensive IFR   Very Intensive IFR
Visi :
Ceiling :
>= 8 km
>= 3000ft
5 to 8 km
1000 to 3000 ft
1500m to 5 km
500 to 1000 ft
800 to 1500m
200 to 500 ft
< 800m
< 200 ft
Symbols :   Thunderstorms  Fog  Heavy snow  Heavy precipitations  Wind > 20 kt
SIGMETs :     Misc.  Thunderstorms  Icing  Turbulence  Mountain Waves  Volcanic Ashes







- Airport Elevation : 39 ft
- IATA code : ANR


EBAW - Anvers / Antwerpen Deurne

CURRENT METAR :
  • 211720Z 25016G26KT 210V280 CAVOK 16/05 Q1012 NOSIG

EXPIRED METARs :
  • 211650Z 25016G28KT CAVOK 16/04 Q1012 NOSIG
  • 211620Z 26015KT 220V300 CAVOK 16/06 Q1012 TEMPO 21015G25KT
  • 211550Z 25015G25KT 210V290 CAVOK 16/04 Q1012 TEMPO 21020G32KT
  • 211520Z 26014G24KT 230V300 CAVOK 17/03 Q1012 TEMPO 21020G32KT
  • 211450Z 25017G28KT 220V280 9999 SCT045 17/05 Q1012 TEMPO 21020G32KT

TAF TAF EBAW
Valid from the 21 at 18:00 until the 22 at 03:00 UTC


211708Z 2118/2203 25012KT 9999 SCT020
PROB30
TEMPO 2118/2119 25015G26KT
No reported NOTAMs for that airfield.
1 SIGMET reported for the Brussels FIR (EBBU) :
 
Severe turbulence
EBBU SIGMET 02 VALID 211600/211900 EBBR
EBBU BRUSSELS FIR SEV TURB FCST ENTIRE FIR FL160/260 MOV ENE20KT NC=



MET'MAP, your aeronautical weather chart ! - Copyright ORBIFLY December 2007 - Disclaimer

ORBIFLY MET'MAP TEAM :

Programming & Development : Alexandra Zaïnal
Concept & Development : Baudouin d'Aumeries
Co-Development & Prog : Marc-Olivier Méhu
Technical & hardware support : Manuel Goepfert

Contact : metmap@orbifly.com




SOURCES & CREDITS :

   NOAA